sensor_id;sensor_type;location;lat;lon;timestamp;pressure;altitude;pressure_sealevel;temperature;humidity
47104;BME280;32853;52.164;5.400;2023-11-21T00:02:28;100969.31;;;10.92;100.00
47104;BME280;32853;52.164;5.400;2023-11-21T00:12:18;100974.59;;;10.91;100.00
47104;BME280;32853;52.164;5.400;2023-11-21T00:15:30;100713.78;;;9.15;100.00
47104;BME280;32853;52.164;5.400;2023-11-21T00:25:04;100990.38;;;10.89;100.00
47104;BME280;32853;52.164;5.400;2023-11-21T00:28:12;101029.81;;;10.83;100.00
47104;BME280;32853;52.164;5.400;2023-11-21T00:30:56;100715.25;;;8.98;100.00
47104;BME280;32853;52.164;5.400;2023-11-21T00:34:11;101002.81;;;10.83;100.00
47104;BME280;32853;52.164;5.400;2023-11-21T00:37:08;100906.94;;;10.13;100.00
47104;BME280;32853;52.164;5.400;2023-11-21T00:40:04;100993.53;;;10.74;100.00
47104;BME280;32853;52.164;5.400;2023-11-21T00:43:08;100990.94;;;10.74;100.00
47104;BME280;32853;52.164;5.400;2023-11-21T00:49:20;100715.84;;;8.82;100.00
47104;BME280;32853;52.164;5.400;2023-11-21T00:55:20;100750.75;;;9.02;100.00
47104;BME280;32853;52.164;5.400;2023-11-21T00:57:58;100808.81;;;9.34;100.00
47104;BME280;32853;52.164;5.400;2023-11-21T01:09:54;100740.69;;;8.92;100.00
47104;BME280;32853;52.164;5.400;2023-11-21T01:12:51;100786.38;;;9.03;100.00
47104;BME280;32853;52.164;5.400;2023-11-21T01:18:51;101040.03;;;10.67;100.00
47104;BME280;32853;52.164;5.400;2023-11-21T01:27:43;101032.84;;;10.72;100.00
47104;BME280;32853;52.164;5.400;2023-11-21T01:31:28;101023.63;;;10.62;100.00
47104;BME280;32853;52.164;5.400;2023-11-21T01:34:24;100747.38;;;8.74;100.00
47104;BME280;32853;52.164;5.400;2023-11-21T01:36:54;100738.56;;;8.52;100.00
47104;BME280;32853;52.164;5.400;2023-11-21T01:39:32;100765.69;;;8.72;100.00
47104;BME280;32853;52.164;5.400;2023-11-21T01:45:20;100778.06;;;8.92;100.00
47104;BME280;32853;52.164;5.400;2023-11-21T01:57:39;101049.38;;;10.73;100.00
47104;BME280;32853;52.164;5.400;2023-11-21T02:04:09;101053.69;;;10.75;100.00
47104;BME280;32853;52.164;5.400;2023-11-21T02:06:59;101066.75;;;10.75;100.00
47104;BME280;32853;52.164;5.400;2023-11-21T02:26:08;100931.72;;;9.78;100.00
47104;BME280;32853;52.164;5.400;2023-11-21T02:29:07;101081.09;;;10.89;100.00
47104;BME280;32853;52.164;5.400;2023-11-21T02:35:46;101085.28;;;10.93;100.00
47104;BME280;32853;52.164;5.400;2023-11-21T02:42:32;101094.63;;;11.00;100.00
47104;BME280;32853;52.164;5.400;2023-11-21T02:55:59;100996.69;;;10.60;100.00
47104;BME280;32853;52.164;5.400;2023-11-21T02:58:56;101093.97;;;11.17;100.00
47104;BME280;32853;52.164;5.400;2023-11-21T03:01:30;101090.34;;;11.21;100.00
47104;BME280;32853;52.164;5.400;2023-11-21T03:07:39;100857.34;;;9.63;100.00
47104;BME280;32853;52.164;5.400;2023-11-21T03:10:18;100797.50;;;9.34;100.00
47104;BME280;32853;52.164;5.400;2023-11-21T03:13:08;101108.47;;;11.25;100.00
47104;BME280;32853;52.164;5.400;2023-11-21T03:15:55;100802.44;;;9.41;100.00
47104;BME280;32853;52.164;5.400;2023-11-21T03:21:52;100914.06;;;10.08;100.00
47104;BME280;32853;52.164;5.400;2023-11-21T03:24:50;101096.03;;;11.32;100.00
47104;BME280;32853;52.164;5.400;2023-11-21T03:27:39;100809.50;;;9.63;100.00
47104;BME280;32853;52.164;5.400;2023-11-21T03:30:27;101086.41;;;11.32;100.00
47104;BME280;32853;52.164;5.400;2023-11-21T03:33:53;101089.94;;;11.31;100.00
47104;BME280;32853;52.164;5.400;2023-11-21T03:43:50;101109.34;;;11.26;100.00
47104;BME280;32853;52.164;5.400;2023-11-21T03:57:27;101120.44;;;11.32;100.00
47104;BME280;32853;52.164;5.400;2023-11-21T04:03:50;100888.22;;;9.77;100.00
47104;BME280;32853;52.164;5.400;2023-11-21T04:09:56;100846.28;;;9.56;100.00
47104;BME280;32853;52.164;5.400;2023-11-21T04:15:54;100860.94;;;9.60;100.00
47104;BME280;32853;52.164;5.400;2023-11-21T04:32:22;100911.56;;;9.81;100.00
47104;BME280;32853;52.164;5.400;2023-11-21T04:38:06;100898.28;;;9.63;100.00
47104;BME280;32853;52.164;5.400;2023-11-21T04:40:45;101178.25;;;11.50;100.00
47104;BME280;32853;52.164;5.400;2023-11-21T04:53:22;101176.41;;;11.52;100.00
47104;BME280;32853;52.164;5.400;2023-11-21T04:56:05;101121.13;;;11.14;100.00
47104;BME280;32853;52.164;5.400;2023-11-21T04:58:49;100890.78;;;9.78;100.00
47104;BME280;32853;52.164;5.400;2023-11-21T05:01:44;100943.38;;;9.93;100.00
47104;BME280;32853;52.164;5.400;2023-11-21T05:04:47;101182.50;;;11.52;100.00
47104;BME280;32853;52.164;5.400;2023-11-21T05:07:15;101192.03;;;11.55;100.00
47104;BME280;32853;52.164;5.400;2023-11-21T05:09:53;101202.59;;;11.52;100.00
47104;BME280;32853;52.164;5.400;2023-11-21T05:12:44;101195.44;;;11.57;100.00
47104;BME280;32853;52.164;5.400;2023-11-21T05:15:32;100970.66;;;10.09;100.00
47104;BME280;32853;52.164;5.400;2023-11-21T05:18:19;101203.88;;;11.65;100.00
47104;BME280;32853;52.164;5.400;2023-11-21T05:20:58;100915.53;;;9.92;100.00
47104;BME280;32853;52.164;5.400;2023-11-21T05:23:41;100966.31;;;10.08;100.00
47104;BME280;32853;52.164;5.400;2023-11-21T05:26:21;100948.41;;;9.97;100.00
47104;BME280;32853;52.164;5.400;2023-11-21T05:29:01;101208.97;;;11.68;100.00
47104;BME280;32853;52.164;5.400;2023-11-21T05:31:41;101209.84;;;11.69;100.00
47104;BME280;32853;52.164;5.400;2023-11-21T05:34:09;101227.25;;;11.70;100.00
47104;BME280;32853;52.164;5.400;2023-11-21T05:36:48;101193.09;;;11.49;100.00
47104;BME280;32853;52.164;5.400;2023-11-21T05:46:03;100948.94;;;10.07;100.00
47104;BME280;32853;52.164;5.400;2023-11-21T05:55:45;101241.84;;;11.77;100.00
47104;BME280;32853;52.164;5.400;2023-11-21T05:58:49;101250.50;;;11.79;100.00
47104;BME280;32853;52.164;5.400;2023-11-21T06:01:27;101274.22;;;11.74;100.00
47104;BME280;32853;52.164;5.400;2023-11-21T06:04:16;101258.31;;;11.80;100.00
47104;BME280;32853;52.164;5.400;2023-11-21T06:07:02;101258.31;;;11.80;100.00
47104;BME280;32853;52.164;5.400;2023-11-21T06:09:38;101087.50;;;10.80;100.00
47104;BME280;32853;52.164;5.400;2023-11-21T06:12:21;101271.03;;;11.91;100.00
47104;BME280;32853;52.164;5.400;2023-11-21T06:15:04;101192.13;;;11.28;100.00
47104;BME280;32853;52.164;5.400;2023-11-21T06:17:48;100946.09;;;9.89;100.00
47104;BME280;32853;52.164;5.400;2023-11-21T06:20:40;101267.78;;;11.84;100.00
47104;BME280;32853;52.164;5.400;2023-11-21T06:23:21;100999.19;;;10.15;100.00
47104;BME280;32853;52.164;5.400;2023-11-21T06:25:50;100995.41;;;9.99;100.00
47104;BME280;32853;52.164;5.400;2023-11-21T06:28:41;101284.06;;;11.92;100.00
47104;BME280;32853;52.164;5.400;2023-11-21T06:31:20;101085.94;;;10.51;100.00
47104;BME280;32853;52.164;5.400;2023-11-21T06:33:49;101285.09;;;11.88;100.00
47104;BME280;32853;52.164;5.400;2023-11-21T06:36:20;101316.22;;;11.98;100.00
47104;BME280;32853;52.164;5.400;2023-11-21T06:39:07;101018.41;;;10.39;100.00
47104;BME280;32853;52.164;5.400;2023-11-21T06:41:58;101224.13;;;11.60;100.00
47104;BME280;32853;52.164;5.400;2023-11-21T06:44:25;100980.41;;;10.04;100.00
47104;BME280;32853;52.164;5.400;2023-11-21T06:46:57;101325.59;;;12.03;100.00
47104;BME280;32853;52.164;5.400;2023-11-21T06:49:29;100991.28;;;10.16;100.00
47104;BME280;32853;52.164;5.400;2023-11-21T06:52:15;101301.81;;;12.08;100.00
47104;BME280;32853;52.164;5.400;2023-11-21T06:54:44;101264.66;;;11.73;100.00
47104;BME280;32853;52.164;5.400;2023-11-21T06:57:10;101035.16;;;10.33;100.00
47104;BME280;32853;52.164;5.400;2023-11-21T07:02:34;101114.78;;;10.73;100.00
47104;BME280;32853;52.164;5.400;2023-11-21T07:05:00;101177.88;;;11.14;100.00
47104;BME280;32853;52.164;5.400;2023-11-21T07:07:33;101075.53;;;10.50;100.00
47104;BME280;32853;52.164;5.400;2023-11-21T07:10:26;101083.06;;;10.59;100.00
47104;BME280;32853;52.164;5.400;2023-11-21T07:12:57;101346.81;;;12.19;100.00
47104;BME280;32853;52.164;5.400;2023-11-21T07:15:48;101240.28;;;11.71;100.00
47104;BME280;32853;52.164;5.400;2023-11-21T07:22:08;101347.28;;;12.30;100.00
47104;BME280;32853;52.164;5.400;2023-11-21T07:25:01;101353.22;;;12.35;100.00
47104;BME280;32853;52.164;5.400;2023-11-21T07:27:39;101143.97;;;10.86;100.00
47104;BME280;32853;52.164;5.400;2023-11-21T07:33:47;101363.44;;;12.41;100.00
47104;BME280;32853;52.164;5.400;2023-11-21T07:36:19;101184.59;;;11.21;100.00
47104;BME280;32853;52.164;5.400;2023-11-21T07:38:58;101176.69;;;11.22;100.00
47104;BME280;32853;52.164;5.400;2023-11-21T07:41:47;101091.16;;;10.76;100.00
47104;BME280;32853;52.164;5.400;2023-11-21T07:44:39;101121.84;;;10.94;100.00
47104;BME280;32853;52.164;5.400;2023-11-21T07:56:02;101429.56;;;12.73;100.00
47104;BME280;32853;52.164;5.400;2023-11-21T07:58:52;101389.03;;;12.80;100.00
47104;BME280;32853;52.164;5.400;2023-11-21T08:02:10;101397.75;;;12.80;100.00
47104;BME280;32853;52.164;5.400;2023-11-21T08:11:51;101416.06;;;12.82;100.00
47104;BME280;32853;52.164;5.400;2023-11-21T08:15:03;101426.81;;;12.98;100.00
47104;BME280;32853;52.164;5.400;2023-11-21T08:18:14;101328.41;;;11.99;100.00
47104;BME280;32853;52.164;5.400;2023-11-21T08:20:50;101164.25;;;11.04;100.00
47104;BME280;32853;52.164;5.400;2023-11-21T09:07:28;101447.84;;;12.06;100.00
47104;BME280;32853;52.164;5.400;2023-11-21T09:10:21;101527.50;;;12.73;100.00
47104;BME280;32853;52.164;5.400;2023-11-21T09:13:31;101312.81;;;11.22;100.00
47104;BME280;32853;52.164;5.400;2023-11-21T09:16:24;101222.81;;;10.50;100.00
47104;BME280;32853;52.164;5.400;2023-11-21T09:19:02;101307.25;;;11.06;100.00
47104;BME280;32853;52.164;5.400;2023-11-21T09:21:49;101254.47;;;10.94;100.00
47104;BME280;32853;52.164;5.400;2023-11-21T09:24:21;101286.59;;;10.99;100.00
47104;BME280;32853;52.164;5.400;2023-11-21T09:26:46;101272.03;;;10.65;100.00
47104;BME280;32853;52.164;5.400;2023-11-21T09:29:18;101551.31;;;12.45;100.00
47104;BME280;32853;52.164;5.400;2023-11-21T09:31:44;101563.47;;;12.23;100.00
47104;BME280;32853;52.164;5.400;2023-11-21T09:38:08;101586.72;;;11.82;100.00
47104;BME280;32853;52.164;5.400;2023-11-21T09:40:47;101285.75;;;10.16;100.00
47104;BME280;32853;52.164;5.400;2023-11-21T10:03:39;101342.28;;;10.22;100.00
47104;BME280;32853;52.164;5.400;2023-11-21T11:19:54;101446.38;;;10.66;100.00
47104;BME280;32853;52.164;5.400;2023-11-21T12:13:03;101606.69;;;11.01;100.00
47104;BME280;32853;52.164;5.400;2023-11-21T14:20:01;101650.75;;;10.20;100.00
47104;BME280;32853;52.164;5.400;2023-11-21T14:29:20;101900.53;;;10.72;100.00
47104;BME280;32853;52.164;5.400;2023-11-21T14:32:18;101942.41;;;11.09;100.00
47104;BME280;32853;52.164;5.400;2023-11-21T14:46:08;101957.69;;;10.52;100.00
47104;BME280;32853;52.164;5.400;2023-11-21T14:55:05;101676.63;;;8.22;100.00
47104;BME280;32853;52.164;5.400;2023-11-21T14:57:58;102007.59;;;10.42;100.00
47104;BME280;32853;52.164;5.400;2023-11-21T15:00:40;101687.19;;;8.13;100.00
47104;BME280;32853;52.164;5.400;2023-11-21T15:03:19;102010.84;;;10.52;100.00
47104;BME280;32853;52.164;5.400;2023-11-21T15:06:09;101777.03;;;8.95;100.00
47104;BME280;32853;52.164;5.400;2023-11-21T15:12:44;101955.94;;;9.63;100.00
47104;BME280;32853;52.164;5.400;2023-11-21T15:15:21;101720.25;;;8.62;100.00
47104;BME280;32853;52.164;5.400;2023-11-21T15:20:48;101782.53;;;8.80;100.00
47104;BME280;32853;52.164;5.400;2023-11-21T17:04:57;102280.16;;;10.03;100.00
47104;BME280;32853;52.164;5.400;2023-11-21T17:07:25;102026.41;;;8.47;100.00
47104;BME280;32853;52.164;5.400;2023-11-21T17:10:05;101992.94;;;8.10;100.00
47104;BME280;32853;52.164;5.400;2023-11-21T17:12:43;102287.19;;;9.96;100.00
47104;BME280;32853;52.164;5.400;2023-11-21T17:17:49;102309.25;;;9.75;100.00
47104;BME280;32853;52.164;5.400;2023-11-21T17:53:34;102240.66;;;8.90;100.00
47104;BME280;32853;52.164;5.400;2023-11-21T18:02:45;102371.50;;;9.38;100.00
47104;BME280;32853;52.164;5.400;2023-11-21T18:05:18;102061.22;;;7.48;100.00
47104;BME280;32853;52.164;5.400;2023-11-21T18:07:46;102189.88;;;8.31;100.00
47104;BME280;32853;52.164;5.400;2023-11-21T18:13:34;102381.88;;;9.46;100.00
47104;BME280;32853;52.164;5.400;2023-11-21T18:16:01;102370.00;;;9.16;100.00
47104;BME280;32853;52.164;5.400;2023-11-21T18:18:27;102389.75;;;9.41;100.00
47104;BME280;32853;52.164;5.400;2023-11-21T18:20:52;102272.94;;;8.76;100.00
47104;BME280;32853;52.164;5.400;2023-11-21T18:23:21;102393.22;;;9.45;100.00
47104;BME280;32853;52.164;5.400;2023-11-21T18:25:46;102207.28;;;8.35;100.00
47104;BME280;32853;52.164;5.400;2023-11-21T18:28:32;102173.56;;;8.12;100.00
47104;BME280;32853;52.164;5.400;2023-11-21T18:30:57;102429.69;;;9.52;100.00
47104;BME280;32853;52.164;5.400;2023-11-21T18:33:23;102435.84;;;9.45;100.00
47104;BME280;32853;52.164;5.400;2023-11-21T18:35:49;102459.28;;;9.51;100.00
47104;BME280;32853;52.164;5.400;2023-11-21T18:38:17;102418.50;;;9.40;100.00
47104;BME280;32853;52.164;5.400;2023-11-21T18:40:45;102239.47;;;8.25;100.00
47104;BME280;32853;52.164;5.400;2023-11-21T18:43:15;102447.38;;;9.20;100.00
47104;BME280;32853;52.164;5.400;2023-11-21T18:45:43;102126.34;;;7.37;100.00
47104;BME280;32853;52.164;5.400;2023-11-21T18:48:14;102287.25;;;8.24;100.00
47104;BME280;32853;52.164;5.400;2023-11-21T18:54:05;102138.63;;;7.09;100.00
47104;BME280;32853;52.164;5.400;2023-11-21T18:56:35;102438.06;;;8.90;100.00
47104;BME280;32853;52.164;5.400;2023-11-21T18:59:00;102255.22;;;8.10;100.00
47104;BME280;32853;52.164;5.400;2023-11-21T19:01:28;102110.97;;;6.87;100.00
47104;BME280;32853;52.164;5.400;2023-11-21T19:04:01;102469.31;;;8.97;100.00
47104;BME280;32853;52.164;5.400;2023-11-21T19:06:39;102400.97;;;8.47;100.00
47104;BME280;32853;52.164;5.400;2023-11-21T19:09:04;102180.22;;;7.23;100.00
47104;BME280;32853;52.164;5.400;2023-11-21T19:11:41;102128.28;;;6.95;100.00
47104;BME280;32853;52.164;5.400;2023-11-21T19:14:06;102233.94;;;7.33;100.00
47104;BME280;32853;52.164;5.400;2023-11-21T19:16:34;102283.09;;;7.96;100.00
47104;BME280;32853;52.164;5.400;2023-11-21T19:19:02;102486.59;;;9.15;100.00
47104;BME280;32853;52.164;5.400;2023-11-21T19:21:30;102487.41;;;9.22;100.00
47104;BME280;32853;52.164;5.400;2023-11-21T19:23:55;102514.41;;;9.16;100.00
47104;BME280;32853;52.164;5.400;2023-11-21T19:26:32;102188.81;;;7.39;100.00
47104;BME280;32853;52.164;5.400;2023-11-21T19:28:58;102312.56;;;8.04;100.00
47104;BME280;32853;52.164;5.400;2023-11-21T19:31:24;102357.69;;;8.15;100.00
47104;BME280;32853;52.164;5.400;2023-11-21T19:34:00;102384.56;;;8.19;100.00
47104;BME280;32853;52.164;5.400;2023-11-21T19:36:28;102512.75;;;9.05;100.00
47104;BME280;32853;52.164;5.400;2023-11-21T19:38:54;102212.34;;;7.13;100.00
47104;BME280;32853;52.164;5.400;2023-11-21T19:41:32;102185.53;;;6.98;100.00
47104;BME280;32853;52.164;5.400;2023-11-21T19:44:16;102524.94;;;9.04;100.00
47104;BME280;32853;52.164;5.400;2023-11-21T19:46:44;102443.56;;;8.47;100.00
47104;BME280;32853;52.164;5.400;2023-11-21T19:49:10;102420.25;;;8.07;100.00
47104;BME280;32853;52.164;5.400;2023-11-21T19:51:45;102455.69;;;8.51;100.00
47104;BME280;32853;52.164;5.400;2023-11-21T19:54:15;102211.50;;;7.03;100.00
47104;BME280;32853;52.164;5.400;2023-11-21T19:56:58;102448.00;;;8.22;100.00
47104;BME280;32853;52.164;5.400;2023-11-21T19:59:39;102354.41;;;7.76;100.00
47104;BME280;32853;52.164;5.400;2023-11-21T20:02:08;102304.16;;;7.48;100.00
47104;BME280;32853;52.164;5.400;2023-11-21T20:04:46;102303.28;;;7.42;100.00
47104;BME280;32853;52.164;5.400;2023-11-21T20:07:15;102539.94;;;8.67;100.00
47104;BME280;32853;52.164;5.400;2023-11-21T20:09:51;102232.38;;;6.71;100.00
47104;BME280;32853;52.164;5.400;2023-11-21T20:12:21;102400.31;;;7.96;100.00
47104;BME280;32853;52.164;5.400;2023-11-21T20:15:05;102215.03;;;6.88;100.00
47104;BME280;32853;52.164;5.400;2023-11-21T20:17:56;102531.28;;;8.65;100.00
47104;BME280;32853;52.164;5.400;2023-11-21T20:20:41;102537.34;;;8.65;100.00
47104;BME280;32853;52.164;5.400;2023-11-21T20:23:20;102257.50;;;6.80;100.00
47104;BME280;32853;52.164;5.400;2023-11-21T20:26:08;102302.53;;;7.06;100.00
47104;BME280;32853;52.164;5.400;2023-11-21T20:28:50;102245.38;;;6.79;100.00
47104;BME280;32853;52.164;5.400;2023-11-21T20:31:20;102554.78;;;8.56;100.00
47104;BME280;32853;52.164;5.400;2023-11-21T20:33:58;102206.41;;;6.31;100.00
47104;BME280;32853;52.164;5.400;2023-11-21T20:36:34;102565.25;;;8.39;100.00
47104;BME280;32853;52.164;5.400;2023-11-21T20:39:06;102201.22;;;6.30;100.00
47104;BME280;32853;52.164;5.400;2023-11-21T20:41:42;102267.03;;;6.62;100.00
47104;BME280;32853;52.164;5.400;2023-11-21T20:44:13;102304.31;;;6.61;100.00
47104;BME280;32853;52.164;5.400;2023-11-21T20:46:43;102264.47;;;6.55;100.00
47104;BME280;32853;52.164;5.400;2023-11-21T20:49:13;102352.84;;;6.84;100.00
47104;BME280;32853;52.164;5.400;2023-11-21T20:51:49;102307.78;;;6.66;100.00
47104;BME280;32853;52.164;5.400;2023-11-21T20:54:16;102309.50;;;6.69;100.00
47104;BME280;32853;52.164;5.400;2023-11-21T20:56:57;102296.50;;;6.49;100.00
47104;BME280;32853;52.164;5.400;2023-11-21T20:59:29;102261.81;;;6.01;100.00
47104;BME280;32853;52.164;5.400;2023-11-21T21:01:58;102524.56;;;7.58;100.00
47104;BME280;32853;52.164;5.400;2023-11-21T21:04:34;102299.06;;;6.17;100.00
47104;BME280;32853;52.164;5.400;2023-11-21T21:13:59;102628.69;;;8.20;100.00
47104;BME280;32853;52.164;5.400;2023-11-21T21:16:48;102634.75;;;8.28;100.00
47104;BME280;32853;52.164;5.400;2023-11-21T21:19:23;102341.53;;;6.31;100.00
47104;BME280;32853;52.164;5.400;2023-11-21T21:22:04;102633.91;;;8.20;100.00
47104;BME280;32853;52.164;5.400;2023-11-21T21:24:36;102657.38;;;8.23;100.00
47104;BME280;32853;52.164;5.400;2023-11-21T21:27:20;102317.19;;;5.97;100.00
47104;BME280;32853;52.164;5.400;2023-11-21T21:29:48;102361.47;;;6.32;100.00
47104;BME280;32853;52.164;5.400;2023-11-21T21:32:15;102577.47;;;7.76;100.00
47104;BME280;32853;52.164;5.400;2023-11-21T21:34:42;102320.75;;;6.36;100.00
47104;BME280;32853;52.164;5.400;2023-11-21T21:37:10;102477.69;;;7.39;100.00
47104;BME280;32853;52.164;5.400;2023-11-21T21:39:36;102597.41;;;8.18;100.00
47104;BME280;32853;52.164;5.400;2023-11-21T21:42:03;102532.38;;;7.60;100.00
47104;BME280;32853;52.164;5.400;2023-11-21T21:44:29;102308.59;;;6.14;100.00
47104;BME280;32853;52.164;5.400;2023-11-21T21:46:59;102447.34;;;7.13;100.00
47104;BME280;32853;52.164;5.400;2023-11-21T21:49:25;102437.81;;;7.17;100.00
47104;BME280;32853;52.164;5.400;2023-11-21T21:51:56;102653.88;;;8.39;100.00
47104;BME280;32853;52.164;5.400;2023-11-21T21:54:21;102481.19;;;7.36;100.00
47104;BME280;32853;52.164;5.400;2023-11-21T21:56:48;102313.78;;;6.10;100.00
47104;BME280;32853;52.164;5.400;2023-11-21T21:59:18;102676.47;;;8.34;100.00
47104;BME280;32853;52.164;5.400;2023-11-21T22:01:47;102606.97;;;8.14;100.00
47104;BME280;32853;52.164;5.400;2023-11-21T22:04:19;102521.97;;;7.55;100.00
47104;BME280;32853;52.164;5.400;2023-11-21T22:06:48;102673.00;;;8.39;100.00
47104;BME280;32853;52.164;5.400;2023-11-21T22:09:32;102620.03;;;8.01;100.00
47104;BME280;32853;52.164;5.400;2023-11-21T22:12:02;102379.69;;;6.46;100.00
47104;BME280;32853;52.164;5.400;2023-11-21T22:14:34;102738.19;;;8.41;100.00
47104;BME280;32853;52.164;5.400;2023-11-21T22:17:00;102708.66;;;8.36;100.00
47104;BME280;32853;52.164;5.400;2023-11-21T22:19:26;102597.44;;;7.60;100.00
47104;BME280;32853;52.164;5.400;2023-11-21T22:21:56;102707.78;;;8.44;100.00
47104;BME280;32853;52.164;5.400;2023-11-21T22:24:22;102694.75;;;8.38;100.00
47104;BME280;32853;52.164;5.400;2023-11-21T22:26:47;102746.88;;;8.41;100.00
47104;BME280;32853;52.164;5.400;2023-11-21T22:29:18;102510.69;;;7.21;100.00
47104;BME280;32853;52.164;5.400;2023-11-21T22:31:44;102356.28;;;6.34;100.00
47104;BME280;32853;52.164;5.400;2023-11-21T22:34:17;102709.50;;;8.39;100.00
47104;BME280;32853;52.164;5.400;2023-11-21T22:36:43;102400.44;;;6.40;100.00
47104;BME280;32853;52.164;5.400;2023-11-21T22:39:12;102567.94;;;7.60;100.00
47104;BME280;32853;52.164;5.400;2023-11-21T22:41:40;102710.38;;;8.38;100.00
47104;BME280;32853;52.164;5.400;2023-11-21T22:44:13;102627.84;;;7.96;100.00
47104;BME280;32853;52.164;5.400;2023-11-21T22:46:48;102390.06;;;6.34;100.00
47104;BME280;32853;52.164;5.400;2023-11-21T22:49:23;102437.75;;;6.65;100.00
47104;BME280;32853;52.164;5.400;2023-11-21T22:51:49;102399.56;;;6.38;100.00
47104;BME280;32853;52.164;5.400;2023-11-21T22:54:23;102479.38;;;6.85;100.00
47104;BME280;32853;52.164;5.400;2023-11-21T22:56:57;102391.78;;;6.41;100.00
47104;BME280;32853;52.164;5.400;2023-11-21T22:59:23;102398.72;;;6.51;100.00
47104;BME280;32853;52.164;5.400;2023-11-21T23:01:51;102573.16;;;7.61;100.00
47104;BME280;32853;52.164;5.400;2023-11-21T23:04:19;102719.09;;;8.43;100.00
47104;BME280;32853;52.164;5.400;2023-11-21T23:06:46;102652.16;;;7.83;100.00
47104;BME280;32853;52.164;5.400;2023-11-21T23:09:15;102753.84;;;8.39;100.00
47104;BME280;32853;52.164;5.400;2023-11-21T23:11:42;102408.25;;;6.49;100.00
47104;BME280;32853;52.164;5.400;2023-11-21T23:14:08;102423.00;;;6.53;100.00
47104;BME280;32853;52.164;5.400;2023-11-21T23:16:39;102785.13;;;8.39;100.00
47104;BME280;32853;52.164;5.400;2023-11-21T23:19:07;102413.38;;;6.19;100.00
47104;BME280;32853;52.164;5.400;2023-11-21T23:21:41;102448.13;;;6.44;100.00
47104;BME280;32853;52.164;5.400;2023-11-21T23:24:07;102621.78;;;7.67;100.00
47104;BME280;32853;52.164;5.400;2023-11-21T23:26:46;102440.31;;;6.51;100.00
47104;BME280;32853;52.164;5.400;2023-11-21T23:29:16;102567.03;;;7.19;100.00
47104;BME280;32853;52.164;5.400;2023-11-21T23:31:46;102458.50;;;6.45;100.00
47104;BME280;32853;52.164;5.400;2023-11-21T23:34:15;102759.00;;;8.30;100.00
47104;BME280;32853;52.164;5.400;2023-11-21T23:36:59;102599.19;;;7.55;100.00
47104;BME280;32853;52.164;5.400;2023-11-21T23:42:05;102461.16;;;6.59;100.00
47104;BME280;32853;52.164;5.400;2023-11-21T23:44:36;102720.78;;;8.34;100.00
47104;BME280;32853;52.164;5.400;2023-11-21T23:47:24;102389.19;;;6.32;100.00
47104;BME280;32853;52.164;5.400;2023-11-21T23:49:53;102429.06;;;6.49;100.00
47104;BME280;32853;52.164;5.400;2023-11-21T23:52:28;102714.69;;;8.27;100.00
47104;BME280;32853;52.164;5.400;2023-11-21T23:54:57;102418.69;;;6.57;100.00
47104;BME280;32853;52.164;5.400;2023-11-21T23:57:23;102431.69;;;6.55;100.00
47104;BME280;32853;52.164;5.400;2023-11-21T23:59:57;102726.00;;;8.34;100.00
